createdAt,value
2019-01-25T00:00:02.920Z,92862.13
2019-01-25T00:02:31.190Z,92864.91
2019-01-25T00:04:59.464Z,92856.39
2019-01-25T00:07:27.795Z,92856.84
2019-01-25T00:09:58.756Z,92865.80
2019-01-25T00:12:26.054Z,92866.77
2019-01-25T00:14:54.359Z,92868.03
2019-01-25T00:17:22.626Z,92859.53
2019-01-25T00:19:50.901Z,92864.17
2019-01-25T00:22:19.201Z,92866.38
2019-01-25T00:24:47.484Z,92863.70
2019-01-25T00:27:15.829Z,92871.05
2019-01-25T00:29:44.139Z,92873.17
2019-01-25T00:32:12.409Z,92866.48
2019-01-25T00:34:40.680Z,92857.80
2019-01-25T00:37:08.991Z,92865.03
2019-01-25T00:39:37.255Z,92858.44
2019-01-25T00:42:05.532Z,92863.44
2019-01-25T00:44:33.838Z,92857.96
2019-01-25T00:47:02.123Z,92859.91
2019-01-25T00:49:30.566Z,92857.03
2019-01-25T00:51:58.871Z,92849.94
2019-01-25T00:54:27.149Z,92844.37
2019-01-25T00:56:55.424Z,92848.88
2019-01-25T00:59:23.743Z,92843.06
2019-01-25T01:01:52.019Z,92835.58
2019-01-25T01:04:20.296Z,92830.16
2019-01-25T01:06:48.678Z,92816.02
2019-01-25T01:09:16.951Z,92823.88
2019-01-25T01:11:45.230Z,92827.54
2019-01-25T01:14:13.561Z,92810.91
2019-01-25T01:16:41.824Z,92811.53
2019-01-25T01:19:10.103Z,92809.98
2019-01-25T01:21:38.413Z,92814.67
2019-01-25T01:24:06.755Z,92829.64
2019-01-25T01:26:35.023Z,92825.57
2019-01-25T01:29:03.371Z,92803.19
2019-01-25T01:31:31.616Z,92833.60
2019-01-25T01:33:59.878Z,92848.78
2019-01-25T01:36:28.184Z,92853.41
2019-01-25T01:38:56.458Z,92822.61
2019-01-25T01:41:24.728Z,92804.91
2019-01-25T01:43:53.070Z,92826.15
2019-01-25T01:46:21.416Z,92824.58
2019-01-25T01:48:49.700Z,92821.75
2019-01-25T01:51:18.014Z,92828.30
2019-01-25T01:53:46.273Z,92826.09
2019-01-25T01:56:14.553Z,92832.30
2019-01-25T01:58:42.894Z,92820.17
2019-01-25T02:01:11.166Z,92818.00
2019-01-25T02:03:39.444Z,92813.56
2019-01-25T02:06:07.890Z,92801.00
2019-01-25T02:08:36.173Z,92801.36
2019-01-25T02:11:04.576Z,92808.09
2019-01-25T02:13:32.885Z,92795.48
2019-01-25T02:16:01.159Z,92791.56
2019-01-25T02:18:29.426Z,92784.36
2019-01-25T02:20:57.808Z,92777.70
2019-01-25T02:23:26.079Z,92779.52
2019-01-25T02:25:54.348Z,92773.69
2019-01-25T02:28:22.922Z,92766.74
2019-01-25T02:30:51.195Z,92762.23
2019-01-25T02:33:19.472Z,92767.97
2019-01-25T02:35:47.781Z,92756.84
2019-01-25T02:38:16.070Z,92775.02
2019-01-25T02:40:44.342Z,92768.84
2019-01-25T02:43:12.652Z,92760.45
2019-01-25T02:45:40.926Z,92755.10
2019-01-25T02:48:09.205Z,92758.20
2019-01-25T02:50:37.516Z,92764.86
2019-01-25T02:53:05.792Z,92759.34
2019-01-25T02:55:34.091Z,92754.94
2019-01-25T02:58:02.411Z,92754.04
2019-01-25T03:00:30.686Z,92743.77
2019-01-25T03:02:59.364Z,92750.66
2019-01-25T03:05:27.701Z,92754.69
2019-01-25T03:07:55.974Z,92761.03
2019-01-25T03:10:29.030Z,92750.16
2019-01-25T03:12:54.357Z,92755.29
2019-01-25T03:15:25.054Z,92739.55
2019-01-25T03:17:53.466Z,92737.05
2019-01-25T03:20:21.776Z,92744.67
2019-01-25T03:22:50.054Z,92744.44
2019-01-25T03:25:23.849Z,92744.41
2019-01-25T03:27:52.149Z,92743.82
2019-01-25T03:30:21.879Z,92736.34
2019-01-25T03:32:50.156Z,92746.08
2019-01-25T03:35:20.295Z,92733.46
2019-01-25T03:37:48.639Z,92723.91
2019-01-25T03:40:19.052Z,92726.02
2019-01-25T03:42:47.368Z,92721.32
2019-01-25T03:45:15.975Z,92721.77
2019-01-25T03:47:44.254Z,92708.58
2019-01-25T03:50:15.821Z,92707.97
2019-01-25T03:52:44.096Z,92709.88
2019-01-25T03:55:13.707Z,92709.55
2019-01-25T03:57:42.031Z,92703.47
2019-01-25T04:00:16.186Z,92706.11
2019-01-25T04:02:44.470Z,92715.94
2019-01-25T04:05:14.725Z,92714.18
2019-01-25T04:07:43.139Z,92701.13
2019-01-25T04:10:17.162Z,92697.72
2019-01-25T04:12:45.470Z,92705.47
2019-01-25T04:15:22.024Z,92712.20
2019-01-25T04:17:50.425Z,92711.81
2019-01-25T04:20:20.559Z,92701.39
2019-01-25T04:22:48.825Z,92707.15
2019-01-25T04:25:18.879Z,92706.36
2019-01-25T04:27:47.167Z,92702.02
2019-01-25T04:30:21.069Z,92704.35
2019-01-25T04:32:49.441Z,92706.00
2019-01-25T04:35:17.728Z,92698.47
2019-01-25T04:37:46.001Z,92697.76
2019-01-25T04:40:18.252Z,92706.19
2019-01-25T04:42:46.535Z,92689.29
2019-01-25T04:45:17.319Z,92715.79
2019-01-25T04:47:45.706Z,92713.16
2019-01-25T04:50:15.924Z,92721.28
2019-01-25T04:52:44.204Z,92732.42
2019-01-25T04:55:23.852Z,92732.38
2019-01-25T04:57:52.129Z,92737.55
2019-01-25T05:00:22.453Z,92732.17
2019-01-25T05:02:59.914Z,92734.30
2019-01-25T05:05:28.626Z,92732.23
2019-01-25T05:08:17.500Z,92728.94
2019-01-25T05:10:45.770Z,92737.08
2019-01-25T05:13:14.042Z,92731.48
2019-01-25T05:15:42.358Z,92736.40
2019-01-25T05:18:11.005Z,92730.56
2019-01-25T05:20:39.279Z,92727.86
2019-01-25T05:23:08.063Z,92727.12
2019-01-25T05:25:36.327Z,92739.17
2019-01-25T05:28:09.981Z,92723.31
2019-01-25T05:30:38.286Z,92717.08
2019-01-25T05:33:06.568Z,92706.66
2019-01-25T05:35:36.181Z,92702.26
2019-01-25T05:38:04.493Z,92713.28
2019-01-25T05:40:32.769Z,92720.74
2019-01-25T05:43:01.105Z,92716.81
2019-01-25T05:45:29.420Z,92711.97
2019-01-25T05:47:57.693Z,92716.22
2019-01-25T05:50:26.238Z,92709.20
2019-01-25T05:52:54.546Z,92709.52
2019-01-25T05:55:23.094Z,92707.90
2019-01-25T05:57:53.156Z,92708.02
2019-01-25T06:00:32.165Z,92714.79
2019-01-25T06:03:05.610Z,92719.59
2019-01-25T06:05:33.889Z,92721.42
2019-01-25T06:08:02.201Z,92716.81
2019-01-25T06:10:32.629Z,92723.90
2019-01-25T06:13:00.905Z,92726.98
2019-01-25T06:15:29.469Z,92706.41
2019-01-25T06:18:01.001Z,92706.53
2019-01-25T06:20:29.265Z,92702.08
2019-01-25T06:22:57.648Z,92697.44
2019-01-25T06:25:25.979Z,92698.92
2019-01-25T06:27:54.257Z,92705.58
2019-01-25T06:30:22.609Z,92700.53
2019-01-25T06:32:50.825Z,92703.16
2019-01-25T06:35:19.099Z,92689.26
2019-01-25T06:37:47.495Z,92696.70
2019-01-25T06:40:15.941Z,92689.18
2019-01-25T06:42:44.351Z,92694.86
2019-01-25T06:45:12.731Z,92695.67
2019-01-25T06:47:41.082Z,92704.38
2019-01-25T06:50:11.658Z,92709.30
2019-01-25T06:55:24.803Z,92710.09
2019-01-25T06:57:54.700Z,92711.92
2019-01-25T07:00:24.686Z,92705.97
2019-01-25T07:02:53.084Z,92710.72
2019-01-25T07:05:21.367Z,92701.98
2019-01-25T07:07:49.789Z,92688.14
2019-01-25T07:10:19.655Z,92696.69
2019-01-25T07:12:47.930Z,92682.34
2019-01-25T07:15:17.843Z,92663.31
2019-01-25T07:17:46.226Z,92660.16
2019-01-25T07:20:15.947Z,92673.13
2019-01-25T07:22:44.233Z,92669.11
2019-01-25T07:25:13.884Z,92674.87
2019-01-25T07:27:42.151Z,92680.95
2019-01-25T07:30:15.249Z,92684.50
2019-01-25T07:32:43.570Z,92694.73
2019-01-25T07:35:11.829Z,92684.39
2019-01-25T07:37:40.117Z,92687.14
2019-01-25T07:40:09.780Z,92686.72
2019-01-25T07:42:38.086Z,92688.95
2019-01-25T07:45:09.487Z,92679.02
2019-01-25T07:47:37.817Z,92681.30
2019-01-25T07:50:08.792Z,92663.30
2019-01-25T07:52:37.129Z,92664.77
2019-01-25T07:55:08.167Z,92663.94
2019-01-25T07:57:36.418Z,92681.55
2019-01-25T08:00:07.691Z,92668.86
2019-01-25T08:02:36.017Z,92685.91
2019-01-25T08:05:05.931Z,92677.90
2019-01-25T08:07:34.213Z,92693.73
2019-01-25T08:10:02.602Z,92688.72
2019-01-25T08:12:30.868Z,92682.86
2019-01-25T08:14:59.143Z,92689.58
2019-01-25T08:17:27.508Z,92690.49
2019-01-25T08:19:55.853Z,92678.45
2019-01-25T08:22:24.206Z,92680.47
2019-01-25T08:24:52.491Z,92686.47
2019-01-25T08:27:20.784Z,92683.91
2019-01-25T08:29:49.211Z,92676.63
2019-01-25T08:32:17.523Z,92685.89
2019-01-25T08:34:45.867Z,92686.16
2019-01-25T08:37:14.173Z,92688.06
2019-01-25T08:39:42.496Z,92689.75
2019-01-25T08:42:15.493Z,92685.64
2019-01-25T08:44:40.717Z,92684.71
2019-01-25T08:47:09.020Z,92696.50
2019-01-25T08:49:37.290Z,92694.14
2019-01-25T08:52:05.582Z,92692.67
2019-01-25T08:54:34.013Z,92687.59
2019-01-25T08:57:02.419Z,92692.31
2019-01-25T08:59:30.701Z,92687.64
2019-01-25T09:01:59.018Z,92674.23
2019-01-25T09:04:27.294Z,92670.56
2019-01-25T09:06:55.567Z,92682.63
2019-01-25T09:09:23.868Z,92677.45
2019-01-25T09:11:52.147Z,92684.40
2019-01-25T09:14:20.407Z,92690.13
2019-01-25T09:16:48.719Z,92693.78
2019-01-25T09:19:16.987Z,92689.35
2019-01-25T09:21:45.261Z,92689.33
2019-01-25T09:24:13.572Z,92697.72
2019-01-25T09:26:41.860Z,92694.67
2019-01-25T09:29:10.138Z,92676.27
2019-01-25T09:31:38.451Z,92694.81
2019-01-25T09:34:06.797Z,92689.23
2019-01-25T09:36:35.070Z,92691.85
2019-01-25T09:39:04.987Z,92685.94
2019-01-25T09:41:33.257Z,92686.06
2019-01-25T09:44:01.526Z,92692.09
2019-01-25T09:46:30.232Z,92695.57
2019-01-25T09:48:58.482Z,92691.00
2019-01-25T09:51:26.761Z,92694.03
2019-01-25T09:53:55.055Z,92687.23
2019-01-25T09:56:23.331Z,92690.75
2019-01-25T09:58:51.610Z,92678.16
2019-01-25T10:01:19.922Z,92671.01
2019-01-25T10:03:48.205Z,92667.15
2019-01-25T10:06:16.619Z,92662.09
2019-01-25T10:08:44.948Z,92673.91
2019-01-25T10:11:13.226Z,92664.05
2019-01-25T10:13:41.507Z,92659.95
2019-01-25T10:16:09.811Z,92648.58
2019-01-25T10:18:38.088Z,92641.10
2019-01-25T10:21:06.370Z,92634.77
2019-01-25T10:23:39.082Z,92640.27
2019-01-25T10:26:04.748Z,92635.28
2019-01-25T10:28:33.025Z,92634.61
2019-01-25T10:31:01.333Z,92626.70
2019-01-25T10:33:29.606Z,92629.87
2019-01-25T10:35:58.121Z,92632.40
2019-01-25T10:38:26.508Z,92634.81
2019-01-25T10:40:54.778Z,92637.17
2019-01-25T10:43:23.051Z,92632.41
2019-01-25T10:45:51.366Z,92625.64
2019-01-25T10:48:19.704Z,92605.89
2019-01-25T10:50:47.967Z,92609.33
2019-01-25T10:53:16.480Z,92605.52
2019-01-25T10:55:44.959Z,92602.34
2019-01-25T10:58:13.301Z,92599.64
2019-01-25T11:00:41.751Z,92599.58
2019-01-25T11:03:10.154Z,92594.89
2019-01-25T11:05:38.433Z,92596.88
2019-01-25T11:08:06.807Z,92594.56
2019-01-25T11:10:35.293Z,92597.27
2019-01-25T11:13:03.774Z,92586.52
2019-01-25T11:15:32.144Z,92574.39
2019-01-25T11:18:00.621Z,92559.45
2019-01-25T11:20:29.122Z,92549.58
2019-01-25T11:22:57.631Z,92547.75
2019-01-25T11:25:34.110Z,92557.08
2019-01-25T11:28:02.634Z,92553.24
2019-01-25T11:30:30.977Z,92555.33
2019-01-25T11:32:59.404Z,92554.39
2019-01-25T11:35:27.929Z,92549.83
2019-01-25T11:37:56.208Z,92547.31
2019-01-25T11:40:27.447Z,92549.20
2019-01-25T11:42:55.952Z,92544.44
2019-01-25T11:45:24.222Z,92537.04
2019-01-25T11:47:52.579Z,92547.69
2019-01-25T11:50:21.689Z,92541.36
2019-01-25T11:52:50.028Z,92538.39
2019-01-25T11:55:19.119Z,92530.13
2019-01-25T11:57:47.793Z,92536.00
2019-01-25T12:03:56.995Z,92521.16
2019-01-25T12:06:25.339Z,92527.26
2019-01-25T12:08:53.832Z,92532.30
2019-01-25T12:11:22.297Z,92532.68
2019-01-25T12:13:50.777Z,92527.66
2019-01-25T12:16:19.047Z,92518.82
2019-01-25T12:18:48.217Z,92518.28
2019-01-25T12:21:16.693Z,92509.51
2019-01-25T12:23:44.979Z,92511.05
2019-01-25T12:26:13.545Z,92501.96
2019-01-25T12:28:41.958Z,92504.35
2019-01-25T12:31:10.395Z,92500.77
2019-01-25T12:33:38.912Z,92499.57
2019-01-25T12:36:07.189Z,92503.11
2019-01-25T12:38:35.673Z,92502.50
2019-01-25T12:41:03.974Z,92503.73
2019-01-25T12:43:32.451Z,92490.47
2019-01-25T12:46:00.942Z,92494.45
2019-01-25T12:48:29.271Z,92503.44
2019-01-25T12:51:01.123Z,92497.62
2019-01-25T12:53:29.807Z,92504.61
2019-01-25T12:55:59.897Z,92502.05
2019-01-25T12:58:28.383Z,92498.64
2019-01-25T13:00:58.435Z,92503.89
2019-01-25T13:03:26.949Z,92491.33
2019-01-25T13:05:55.466Z,92491.07
2019-01-25T13:08:23.960Z,92488.42
2019-01-25T13:10:52.477Z,92478.87
2019-01-25T13:13:20.950Z,92478.65
2019-01-25T13:15:49.433Z,92488.66
2019-01-25T13:18:17.942Z,92491.61
2019-01-25T13:20:46.433Z,92492.25
2019-01-25T13:23:14.918Z,92499.93
2019-01-25T13:25:47.265Z,92502.24
2019-01-25T13:28:13.628Z,92500.61
2019-01-25T13:30:42.112Z,92498.88
2019-01-25T13:33:10.646Z,92501.54
2019-01-25T13:35:39.109Z,92492.25
2019-01-25T13:38:07.592Z,92495.78
2019-01-25T13:40:36.126Z,92488.05
2019-01-25T13:43:04.602Z,92483.70
2019-01-25T13:45:33.080Z,92469.71
2019-01-25T13:48:01.595Z,92468.76
2019-01-25T13:50:30.580Z,92462.47
2019-01-25T13:52:59.064Z,92462.20
2019-01-25T13:55:27.595Z,92455.28
2019-01-25T13:57:56.067Z,92457.06
2019-01-25T14:00:26.684Z,92458.05
2019-01-25T14:02:55.237Z,92450.18
2019-01-25T14:05:23.725Z,92445.97
2019-01-25T14:07:52.210Z,92447.82
2019-01-25T14:10:23.186Z,92444.03
2019-01-25T14:12:51.668Z,92441.53
2019-01-25T14:15:20.148Z,92447.63
2019-01-25T14:17:48.667Z,92445.05
2019-01-25T14:20:23.725Z,92447.56
2019-01-25T14:22:53.195Z,92448.78
2019-01-25T14:25:21.689Z,92439.08
2019-01-25T14:27:50.171Z,92438.75
2019-01-25T14:30:21.946Z,92436.97
2019-01-25T14:32:50.438Z,92438.52
2019-01-25T14:35:18.928Z,92421.30
2019-01-25T14:37:47.457Z,92424.50
2019-01-25T14:40:15.958Z,92417.39
2019-01-25T14:42:44.435Z,92418.55
2019-01-25T14:45:15.360Z,92415.17
2019-01-25T14:47:43.860Z,92419.18
2019-01-25T14:50:18.562Z,92422.45
2019-01-25T14:52:49.781Z,92408.52
2019-01-25T14:55:18.275Z,92416.38
2019-01-25T14:57:46.765Z,92424.84
2019-01-25T15:00:15.700Z,92421.61
2019-01-25T15:02:44.208Z,92423.64
2019-01-25T15:05:17.613Z,92416.41
2019-01-25T15:07:46.149Z,92419.81
2019-01-25T15:10:17.301Z,92414.55
2019-01-25T15:12:45.984Z,92404.52
2019-01-25T15:15:15.108Z,92403.41
2019-01-25T15:17:43.609Z,92399.80
2019-01-25T15:20:17.924Z,92394.98
2019-01-25T15:22:46.492Z,92394.23
2019-01-25T15:25:15.590Z,92392.11
2019-01-25T15:27:44.089Z,92386.36
2019-01-25T15:30:23.745Z,92385.27
2019-01-25T15:32:52.232Z,92373.06
2019-01-25T15:35:21.627Z,92370.69
2019-01-25T15:37:50.149Z,92369.44
2019-01-25T15:40:20.134Z,92374.77
2019-01-25T15:42:48.637Z,92373.75
2019-01-25T15:45:21.553Z,92369.14
2019-01-25T15:47:50.056Z,92367.21
2019-01-25T15:50:21.214Z,92374.98
2019-01-25T15:52:49.726Z,92374.45
2019-01-25T15:55:21.536Z,92371.39
2019-01-25T15:57:50.028Z,92379.59
2019-01-25T16:00:24.136Z,92378.69
2019-01-25T16:02:52.626Z,92382.40
2019-01-25T16:05:21.737Z,92379.30
2019-01-25T16:07:50.271Z,92384.66
2019-01-25T16:10:20.571Z,92389.77
2019-01-25T16:12:49.147Z,92400.48
2019-01-25T16:15:20.132Z,92407.40
2019-01-25T16:17:48.630Z,92406.61
2019-01-25T16:20:18.417Z,92417.97
2019-01-25T16:22:47.747Z,92413.32
2019-01-25T16:25:24.390Z,92413.21
2019-01-25T16:27:52.932Z,92414.16
2019-01-25T16:30:27.406Z,92415.84
2019-01-25T16:32:55.887Z,92413.36
2019-01-25T16:35:24.427Z,92414.06
2019-01-25T16:37:52.920Z,92417.84
2019-01-25T16:40:24.161Z,92415.20
2019-01-25T16:42:52.672Z,92423.20
2019-01-25T16:45:33.053Z,92426.91
2019-01-25T16:48:01.609Z,92432.17
2019-01-25T16:50:30.096Z,92430.80
2019-01-25T16:52:58.573Z,92437.50
2019-01-25T16:55:27.114Z,92438.16
2019-01-25T16:57:55.603Z,92443.02
2019-01-25T17:00:26.568Z,92450.18
2019-01-25T17:02:55.073Z,92441.34
2019-01-25T17:05:23.567Z,92438.28
2019-01-25T17:07:55.047Z,92442.23
2019-01-25T17:10:23.574Z,92446.83
2019-01-25T17:12:52.070Z,92441.21
2019-01-25T17:15:20.543Z,92445.59
2019-01-25T17:17:49.080Z,92446.50
2019-01-25T17:20:28.605Z,92443.01
2019-01-25T17:22:57.144Z,92443.73
2019-01-25T17:25:30.102Z,92443.91
2019-01-25T17:28:00.111Z,92449.71
2019-01-25T17:30:38.035Z,92451.09
2019-01-25T17:33:06.825Z,92452.53
2019-01-25T17:35:38.469Z,92453.91
2019-01-25T17:38:07.033Z,92451.94
2019-01-25T17:40:46.114Z,92443.19
2019-01-25T17:43:08.851Z,92444.38
2019-01-25T17:45:37.393Z,92430.97
2019-01-25T17:48:06.480Z,92423.09
2019-01-25T17:50:34.972Z,92426.77
2019-01-25T17:53:03.498Z,92429.29
2019-01-25T17:55:31.998Z,92426.02
2019-01-25T17:58:07.694Z,92426.23
2019-01-25T18:00:33.593Z,92425.23
2019-01-25T18:03:02.085Z,92434.06
2019-01-25T18:05:30.575Z,92437.70
2019-01-25T18:07:59.114Z,92434.78
2019-01-25T18:10:27.588Z,92435.62
2019-01-25T18:12:56.086Z,92439.14
2019-01-25T18:15:24.615Z,92434.41
2019-01-25T18:17:53.106Z,92436.88
2019-01-25T18:20:25.137Z,92438.00
2019-01-25T18:22:53.956Z,92439.58
2019-01-25T18:25:31.378Z,92433.16
2019-01-25T18:28:02.611Z,92435.52
2019-01-25T18:30:40.376Z,92436.42
2019-01-25T18:33:08.910Z,92429.16
2019-01-25T18:35:37.398Z,92424.56
2019-01-25T18:38:06.074Z,92426.70
2019-01-25T18:40:34.606Z,92427.55
2019-01-25T18:43:03.098Z,92429.61
2019-01-25T18:45:31.583Z,92429.11
2019-01-25T18:48:00.119Z,92430.38
2019-01-25T18:50:28.600Z,92424.06
2019-01-25T18:52:57.101Z,92413.62
2019-01-25T18:55:26.231Z,92421.17
2019-01-25T18:57:54.729Z,92422.50
2019-01-25T19:00:23.230Z,92424.23
2019-01-25T19:02:51.768Z,92414.62
2019-01-25T19:05:20.249Z,92416.19
2019-01-25T19:07:48.745Z,92420.77
2019-01-25T19:10:19.871Z,92424.87
2019-01-25T19:12:48.361Z,92428.70
2019-01-25T19:15:19.546Z,92435.71
2019-01-25T19:17:50.819Z,92434.83
2019-01-25T19:20:19.319Z,92439.78
2019-01-25T19:22:47.801Z,92433.98
2019-01-25T19:25:16.334Z,92433.17
2019-01-25T19:27:44.829Z,92437.31
2019-01-25T19:30:16.422Z,92434.29
2019-01-25T19:32:44.945Z,92438.17
2019-01-25T19:35:14.132Z,92444.42
2019-01-25T19:37:42.607Z,92453.38
2019-01-25T19:40:16.680Z,92455.05
2019-01-25T19:42:45.176Z,92447.20
2019-01-25T19:45:13.662Z,92459.28
2019-01-25T19:47:44.939Z,92443.64
2019-01-25T19:50:18.793Z,92454.43
2019-01-25T19:52:47.277Z,92441.77
2019-01-25T19:55:24.476Z,92444.15
2019-01-25T19:57:52.969Z,92450.78
2019-01-25T20:00:29.969Z,92453.80
2019-01-25T20:02:58.473Z,92440.11
2019-01-25T20:05:29.048Z,92455.29
2019-01-25T20:07:57.639Z,92452.06
2019-01-25T20:10:28.849Z,92458.19
2019-01-25T20:12:57.457Z,92453.88
2019-01-25T20:15:26.972Z,92449.34
2019-01-25T20:17:55.456Z,92443.02
2019-01-25T20:20:26.529Z,92446.59
2019-01-25T20:22:55.057Z,92444.97
2019-01-25T20:25:23.548Z,92440.78
2019-01-25T20:27:52.044Z,92447.19
2019-01-25T20:30:22.860Z,92443.03
2019-01-25T20:32:52.918Z,92443.11
2019-01-25T20:35:24.159Z,92443.61
2019-01-25T20:37:52.691Z,92435.25
2019-01-25T20:40:21.177Z,92438.09
2019-01-25T20:42:49.663Z,92445.64
2019-01-25T20:45:27.168Z,92447.29
2019-01-25T20:47:53.355Z,92454.14
2019-01-25T20:50:24.345Z,92459.23
2019-01-25T20:52:55.827Z,92458.64
2019-01-25T20:55:24.610Z,92469.27
2019-01-25T20:57:53.202Z,92462.84
2019-01-25T21:00:30.276Z,92459.50
2019-01-25T21:02:58.742Z,92466.83
2019-01-25T21:05:30.248Z,92470.63
2019-01-25T21:08:00.348Z,92480.38
2019-01-25T21:10:28.826Z,92482.02
2019-01-25T21:12:57.297Z,92487.67
2019-01-25T21:15:34.827Z,92476.28
2019-01-25T21:17:57.605Z,92479.00
2019-01-25T21:20:31.758Z,92487.19
2019-01-25T21:23:00.237Z,92482.56
2019-01-25T21:25:28.712Z,92482.48
2019-01-25T21:27:57.235Z,92479.80
2019-01-25T21:30:27.929Z,92491.86
2019-01-25T21:32:57.294Z,92492.46
2019-01-25T21:35:25.813Z,92487.13
2019-01-25T21:37:54.286Z,92491.45
2019-01-25T21:40:25.427Z,92485.97
2019-01-25T21:42:53.963Z,92481.15
2019-01-25T21:45:24.821Z,92484.13
2019-01-25T21:47:53.394Z,92488.75
2019-01-25T21:50:24.401Z,92482.20
2019-01-25T21:52:52.887Z,92479.06
2019-01-25T21:55:21.369Z,92480.97
2019-01-25T21:57:49.985Z,92482.61
2019-01-25T22:00:23.483Z,92488.84
2019-01-25T22:02:51.958Z,92500.52
2019-01-25T22:05:20.678Z,92493.47
2019-01-25T22:07:49.165Z,92495.86
2019-01-25T22:10:20.250Z,92494.31
2019-01-25T22:12:48.771Z,92508.01
2019-01-25T22:15:18.815Z,92503.84
2019-01-25T22:17:47.226Z,92509.34
2019-01-25T22:20:26.777Z,92503.29
2019-01-25T22:22:55.264Z,92503.75
2019-01-25T22:25:23.846Z,92508.98
2019-01-25T22:27:53.396Z,92512.75
2019-01-25T22:30:27.416Z,92519.86
2019-01-25T22:32:55.893Z,92514.37
2019-01-25T22:35:24.284Z,92516.52
2019-01-25T22:37:53.285Z,92517.77
2019-01-25T22:40:29.379Z,92516.23
2019-01-25T22:42:57.860Z,92513.36
2019-01-25T22:45:30.140Z,92517.66
2019-01-25T22:47:59.581Z,92516.25
2019-01-25T22:50:29.991Z,92523.34
2019-01-25T22:52:58.462Z,92518.42
2019-01-25T22:55:26.971Z,92517.81
2019-01-25T22:57:55.244Z,92525.02
2019-01-25T23:00:54.875Z,92518.98
2019-01-25T23:03:32.212Z,92524.95
2019-01-25T23:06:29.323Z,92528.94
2019-01-25T23:09:01.112Z,92528.95
2019-01-25T23:11:29.461Z,92542.29
2019-01-25T23:13:57.761Z,92542.23
2019-01-25T23:16:26.037Z,92533.69
2019-01-25T23:18:54.320Z,92525.17
2019-01-25T23:21:22.711Z,92540.86
2019-01-25T23:23:50.982Z,92548.86
2019-01-25T23:26:19.260Z,92547.25
2019-01-25T23:28:47.581Z,92540.24
2019-01-25T23:31:15.945Z,92532.29
2019-01-25T23:33:44.286Z,92543.39
2019-01-25T23:36:12.621Z,92548.28
2019-01-25T23:38:40.903Z,92537.19
2019-01-25T23:41:09.262Z,92546.02
2019-01-25T23:43:37.579Z,92539.50
2019-01-25T23:46:05.848Z,92558.59
2019-01-25T23:48:34.138Z,92561.30
2019-01-25T23:51:02.513Z,92567.81
2019-01-25T23:53:30.860Z,92574.06
2019-01-25T23:55:59.143Z,92580.89
2019-01-25T23:58:27.458Z,92574.88
